sensor_id;sensor_type;location;lat;lon;timestamp;P1;durP1;ratioP1;P2;durP2;ratioP2
61915;SDS011;47868;51.326;6.550;2023-03-14T00:00:53;5.75;;;2.55;;
61915;SDS011;47868;51.326;6.550;2023-03-14T00:03:19;7.00;;;2.50;;
61915;SDS011;47868;51.326;6.550;2023-03-14T00:05:45;8.70;;;2.78;;
61915;SDS011;47868;51.326;6.550;2023-03-14T00:08:12;8.43;;;2.38;;
61915;SDS011;47868;51.326;6.550;2023-03-14T00:10:38;7.13;;;2.47;;
61915;SDS011;47868;51.326;6.550;2023-03-14T00:13:04;3.58;;;2.20;;
61915;SDS011;47868;51.326;6.550;2023-03-14T00:15:32;7.60;;;2.55;;
61915;SDS011;47868;51.326;6.550;2023-03-14T00:17:58;7.50;;;2.35;;
61915;SDS011;47868;51.326;6.550;2023-03-14T00:20:24;7.18;;;2.70;;
61915;SDS011;47868;51.326;6.550;2023-03-14T00:22:50;10.98;;;2.67;;
61915;SDS011;47868;51.326;6.550;2023-03-14T00:25:16;4.30;;;2.17;;
61915;SDS011;47868;51.326;6.550;2023-03-14T00:27:42;7.53;;;2.40;;
61915;SDS011;47868;51.326;6.550;2023-03-14T00:30:09;6.43;;;1.73;;
61915;SDS011;47868;51.326;6.550;2023-03-14T00:32:35;4.57;;;2.15;;
61915;SDS011;47868;51.326;6.550;2023-03-14T00:35:01;4.70;;;1.92;;
61915;SDS011;47868;51.326;6.550;2023-03-14T00:37:28;9.48;;;2.35;;
61915;SDS011;47868;51.326;6.550;2023-03-14T00:39:54;5.35;;;2.10;;
61915;SDS011;47868;51.326;6.550;2023-03-14T00:42:20;3.38;;;1.80;;
61915;SDS011;47868;51.326;6.550;2023-03-14T00:44:46;6.25;;;1.95;;
61915;SDS011;47868;51.326;6.550;2023-03-14T00:47:12;3.75;;;1.90;;
61915;SDS011;47868;51.326;6.550;2023-03-14T00:49:38;6.88;;;2.08;;
61915;SDS011;47868;51.326;6.550;2023-03-14T00:52:04;4.32;;;1.65;;
61915;SDS011;47868;51.326;6.550;2023-03-14T00:54:30;4.95;;;2.22;;
61915;SDS011;47868;51.326;6.550;2023-03-14T00:56:56;3.88;;;1.70;;
61915;SDS011;47868;51.326;6.550;2023-03-14T00:59:22;7.35;;;1.65;;
61915;SDS011;47868;51.326;6.550;2023-03-14T01:01:48;4.00;;;1.65;;
61915;SDS011;47868;51.326;6.550;2023-03-14T01:04:14;3.90;;;1.67;;
61915;SDS011;47868;51.326;6.550;2023-03-14T01:06:40;4.88;;;1.50;;
61915;SDS011;47868;51.326;6.550;2023-03-14T01:09:06;6.47;;;1.83;;
61915;SDS011;47868;51.326;6.550;2023-03-14T01:11:33;3.17;;;1.65;;
61915;SDS011;47868;51.326;6.550;2023-03-14T01:13:59;4.53;;;1.80;;
61915;SDS011;47868;51.326;6.550;2023-03-14T01:16:26;6.90;;;1.75;;
61915;SDS011;47868;51.326;6.550;2023-03-14T01:18:53;5.07;;;1.48;;
61915;SDS011;47868;51.326;6.550;2023-03-14T01:21:20;6.53;;;1.95;;
61915;SDS011;47868;51.326;6.550;2023-03-14T01:23:47;4.05;;;1.95;;
61915;SDS011;47868;51.326;6.550;2023-03-14T01:26:14;6.45;;;1.48;;
61915;SDS011;47868;51.326;6.550;2023-03-14T01:28:40;7.68;;;1.65;;
61915;SDS011;47868;51.326;6.550;2023-03-14T01:31:07;4.55;;;1.42;;
61915;SDS011;47868;51.326;6.550;2023-03-14T01:33:34;5.50;;;1.80;;
61915;SDS011;47868;51.326;6.550;2023-03-14T01:36:00;5.18;;;1.67;;
61915;SDS011;47868;51.326;6.550;2023-03-14T01:38:30;9.85;;;1.80;;
61915;SDS011;47868;51.326;6.550;2023-03-14T01:40:56;3.55;;;1.35;;
61915;SDS011;47868;51.326;6.550;2023-03-14T01:43:22;6.63;;;1.83;;
61915;SDS011;47868;51.326;6.550;2023-03-14T01:46:06;3.97;;;1.73;;
61915;SDS011;47868;51.326;6.550;2023-03-14T01:51:04;8.75;;;1.90;;
61915;SDS011;47868;51.326;6.550;2023-03-14T01:53:31;6.32;;;2.10;;
61915;SDS011;47868;51.326;6.550;2023-03-14T01:55:57;6.35;;;1.98;;
61915;SDS011;47868;51.326;6.550;2023-03-14T01:58:24;7.72;;;2.00;;
61915;SDS011;47868;51.326;6.550;2023-03-14T02:00:52;7.18;;;2.15;;
61915;SDS011;47868;51.326;6.550;2023-03-14T02:03:18;5.45;;;1.80;;
61915;SDS011;47868;51.326;6.550;2023-03-14T02:05:46;4.97;;;1.98;;
61915;SDS011;47868;51.326;6.550;2023-03-14T02:08:16;5.88;;;1.83;;
61915;SDS011;47868;51.326;6.550;2023-03-14T02:10:52;3.97;;;1.90;;
61915;SDS011;47868;51.326;6.550;2023-03-14T02:13:18;4.75;;;1.98;;
61915;SDS011;47868;51.326;6.550;2023-03-14T02:15:45;7.60;;;2.13;;
61915;SDS011;47868;51.326;6.550;2023-03-14T02:18:11;10.35;;;2.05;;
61915;SDS011;47868;51.326;6.550;2023-03-14T02:20:39;5.03;;;1.65;;
61915;SDS011;47868;51.326;6.550;2023-03-14T02:23:08;8.55;;;2.78;;
61915;SDS011;47868;51.326;6.550;2023-03-14T02:25:57;5.53;;;2.47;;
61915;SDS011;47868;51.326;6.550;2023-03-14T02:28:20;9.55;;;2.35;;
61915;SDS011;47868;51.326;6.550;2023-03-14T02:30:46;7.75;;;2.03;;
61915;SDS011;47868;51.326;6.550;2023-03-14T02:33:14;13.48;;;2.33;;
61915;SDS011;47868;51.326;6.550;2023-03-14T02:40:45;8.50;;;2.35;;
61915;SDS011;47868;51.326;6.550;2023-03-14T02:43:11;7.05;;;2.35;;
61915;SDS011;47868;51.326;6.550;2023-03-14T02:45:39;7.10;;;2.30;;
61915;SDS011;47868;51.326;6.550;2023-03-14T02:48:11;7.55;;;2.40;;
61915;SDS011;47868;51.326;6.550;2023-03-14T02:50:37;11.38;;;2.28;;
61915;SDS011;47868;51.326;6.550;2023-03-14T02:53:04;7.13;;;2.22;;
61915;SDS011;47868;51.326;6.550;2023-03-14T02:55:30;6.68;;;2.30;;
61915;SDS011;47868;51.326;6.550;2023-03-14T02:57:56;6.43;;;1.98;;
61915;SDS011;47868;51.326;6.550;2023-03-14T03:00:22;8.70;;;2.55;;
61915;SDS011;47868;51.326;6.550;2023-03-14T03:02:48;6.97;;;2.42;;
61915;SDS011;47868;51.326;6.550;2023-03-14T03:05:14;7.18;;;2.45;;
61915;SDS011;47868;51.326;6.550;2023-03-14T03:07:40;8.88;;;2.28;;
61915;SDS011;47868;51.326;6.550;2023-03-14T03:10:06;8.77;;;1.95;;
61915;SDS011;47868;51.326;6.550;2023-03-14T03:12:32;9.68;;;2.25;;
61915;SDS011;47868;51.326;6.550;2023-03-14T03:14:58;5.07;;;1.80;;
61915;SDS011;47868;51.326;6.550;2023-03-14T03:17:24;6.68;;;2.25;;
61915;SDS011;47868;51.326;6.550;2023-03-14T03:19:50;6.10;;;2.00;;
61915;SDS011;47868;51.326;6.550;2023-03-14T03:22:16;7.90;;;2.40;;
61915;SDS011;47868;51.326;6.550;2023-03-14T03:24:42;6.97;;;2.33;;
61915;SDS011;47868;51.326;6.550;2023-03-14T03:27:09;7.45;;;2.58;;
61915;SDS011;47868;51.326;6.550;2023-03-14T03:29:35;6.22;;;2.00;;
61915;SDS011;47868;51.326;6.550;2023-03-14T03:32:01;3.95;;;1.85;;
61915;SDS011;47868;51.326;6.550;2023-03-14T03:34:27;5.93;;;2.42;;
61915;SDS011;47868;51.326;6.550;2023-03-14T03:36:55;6.35;;;2.10;;
61915;SDS011;47868;51.326;6.550;2023-03-14T03:39:21;8.50;;;2.63;;
61915;SDS011;47868;51.326;6.550;2023-03-14T03:41:47;8.23;;;2.53;;
61915;SDS011;47868;51.326;6.550;2023-03-14T03:44:14;11.40;;;2.92;;
61915;SDS011;47868;51.326;6.550;2023-03-14T03:46:40;7.47;;;2.97;;
61915;SDS011;47868;51.326;6.550;2023-03-14T03:49:06;8.68;;;2.35;;
61915;SDS011;47868;51.326;6.550;2023-03-14T03:51:32;7.50;;;2.30;;
61915;SDS011;47868;51.326;6.550;2023-03-14T03:53:58;10.27;;;3.10;;
61915;SDS011;47868;51.326;6.550;2023-03-14T03:56:24;11.00;;;2.92;;
61915;SDS011;47868;51.326;6.550;2023-03-14T03:58:50;6.75;;;2.90;;
61915;SDS011;47868;51.326;6.550;2023-03-14T04:01:15;7.20;;;2.17;;
61915;SDS011;47868;51.326;6.550;2023-03-14T04:03:41;7.82;;;2.53;;
61915;SDS011;47868;51.326;6.550;2023-03-14T04:06:08;8.70;;;2.13;;
61915;SDS011;47868;51.326;6.550;2023-03-14T04:08:35;3.38;;;1.63;;
61915;SDS011;47868;51.326;6.550;2023-03-14T04:11:01;8.35;;;2.45;;
61915;SDS011;47868;51.326;6.550;2023-03-14T04:13:27;6.32;;;2.53;;
61915;SDS011;47868;51.326;6.550;2023-03-14T04:15:54;5.88;;;1.60;;
61915;SDS011;47868;51.326;6.550;2023-03-14T04:18:20;5.82;;;1.80;;
61915;SDS011;47868;51.326;6.550;2023-03-14T04:20:56;6.45;;;2.10;;
61915;SDS011;47868;51.326;6.550;2023-03-14T04:23:22;7.80;;;2.00;;
61915;SDS011;47868;51.326;6.550;2023-03-14T04:25:49;5.03;;;1.70;;
61915;SDS011;47868;51.326;6.550;2023-03-14T04:28:15;4.15;;;1.42;;
61915;SDS011;47868;51.326;6.550;2023-03-14T04:30:41;5.85;;;2.03;;
61915;SDS011;47868;51.326;6.550;2023-03-14T04:33:07;7.60;;;2.08;;
61915;SDS011;47868;51.326;6.550;2023-03-14T04:35:34;5.35;;;1.80;;
61915;SDS011;47868;51.326;6.550;2023-03-14T04:38:00;5.88;;;2.13;;
61915;SDS011;47868;51.326;6.550;2023-03-14T04:40:26;3.00;;;1.65;;
61915;SDS011;47868;51.326;6.550;2023-03-14T04:42:52;4.50;;;1.60;;
61915;SDS011;47868;51.326;6.550;2023-03-14T04:45:18;2.97;;;1.70;;
61915;SDS011;47868;51.326;6.550;2023-03-14T04:47:44;4.25;;;1.23;;
61915;SDS011;47868;51.326;6.550;2023-03-14T04:50:10;4.60;;;1.50;;
61915;SDS011;47868;51.326;6.550;2023-03-14T04:52:36;3.15;;;1.55;;
61915;SDS011;47868;51.326;6.550;2023-03-14T04:55:02;5.55;;;1.65;;
61915;SDS011;47868;51.326;6.550;2023-03-14T04:57:28;4.07;;;1.70;;
61915;SDS011;47868;51.326;6.550;2023-03-14T04:59:54;3.47;;;1.35;;
61915;SDS011;47868;51.326;6.550;2023-03-14T05:02:20;3.85;;;1.23;;
61915;SDS011;47868;51.326;6.550;2023-03-14T05:04:46;3.40;;;1.38;;
61915;SDS011;47868;51.326;6.550;2023-03-14T05:07:12;1.83;;;1.10;;
61915;SDS011;47868;51.326;6.550;2023-03-14T05:09:38;1.52;;;0.80;;
61915;SDS011;47868;51.326;6.550;2023-03-14T05:12:04;2.60;;;1.10;;
61915;SDS011;47868;51.326;6.550;2023-03-14T05:14:30;2.95;;;1.08;;
61915;SDS011;47868;51.326;6.550;2023-03-14T05:16:56;1.83;;;1.13;;
61915;SDS011;47868;51.326;6.550;2023-03-14T05:19:22;1.92;;;1.10;;
61915;SDS011;47868;51.326;6.550;2023-03-14T05:21:48;4.57;;;1.13;;
61915;SDS011;47868;51.326;6.550;2023-03-14T05:24:14;2.40;;;1.20;;
61915;SDS011;47868;51.326;6.550;2023-03-14T05:26:40;2.58;;;1.35;;
61915;SDS011;47868;51.326;6.550;2023-03-14T05:29:06;2.20;;;1.20;;
61915;SDS011;47868;51.326;6.550;2023-03-14T05:31:32;3.25;;;1.30;;
61915;SDS011;47868;51.326;6.550;2023-03-14T05:33:58;2.38;;;1.30;;
61915;SDS011;47868;51.326;6.550;2023-03-14T05:36:24;2.00;;;1.38;;
61915;SDS011;47868;51.326;6.550;2023-03-14T05:38:50;3.75;;;1.50;;
61915;SDS011;47868;51.326;6.550;2023-03-14T05:41:16;2.75;;;1.48;;
61915;SDS011;47868;51.326;6.550;2023-03-14T05:43:42;3.60;;;1.50;;
61915;SDS011;47868;51.326;6.550;2023-03-14T05:46:08;1.83;;;1.10;;
61915;SDS011;47868;51.326;6.550;2023-03-14T05:48:34;1.67;;;1.20;;
61915;SDS011;47868;51.326;6.550;2023-03-14T05:51:00;1.20;;;1.10;;
61915;SDS011;47868;51.326;6.550;2023-03-14T05:53:27;1.95;;;1.00;;
61915;SDS011;47868;51.326;6.550;2023-03-14T05:55:54;1.40;;;1.02;;
61915;SDS011;47868;51.326;6.550;2023-03-14T05:58:20;2.28;;;1.00;;
61915;SDS011;47868;51.326;6.550;2023-03-14T06:00:46;1.85;;;0.88;;
61915;SDS011;47868;51.326;6.550;2023-03-14T06:03:13;0.73;;;0.73;;
61915;SDS011;47868;51.326;6.550;2023-03-14T06:05:39;1.75;;;1.00;;
61915;SDS011;47868;51.326;6.550;2023-03-14T06:08:04;1.20;;;0.90;;
61915;SDS011;47868;51.326;6.550;2023-03-14T06:10:31;2.42;;;0.80;;
61915;SDS011;47868;51.326;6.550;2023-03-14T06:12:57;1.98;;;0.57;;
61915;SDS011;47868;51.326;6.550;2023-03-14T06:15:22;0.80;;;0.80;;
61915;SDS011;47868;51.326;6.550;2023-03-14T06:17:48;1.58;;;1.05;;
61915;SDS011;47868;51.326;6.550;2023-03-14T06:20:14;1.90;;;0.80;;
61915;SDS011;47868;51.326;6.550;2023-03-14T06:22:40;2.55;;;0.90;;
61915;SDS011;47868;51.326;6.550;2023-03-14T06:25:07;2.63;;;1.05;;
61915;SDS011;47868;51.326;6.550;2023-03-14T06:27:33;2.10;;;0.95;;
61915;SDS011;47868;51.326;6.550;2023-03-14T06:29:59;1.95;;;1.00;;
61915;SDS011;47868;51.326;6.550;2023-03-14T06:32:25;2.92;;;0.80;;
61915;SDS011;47868;51.326;6.550;2023-03-14T06:34:51;2.92;;;0.70;;
61915;SDS011;47868;51.326;6.550;2023-03-14T06:37:18;1.15;;;0.80;;
61915;SDS011;47868;51.326;6.550;2023-03-14T06:39:44;1.55;;;0.80;;
61915;SDS011;47868;51.326;6.550;2023-03-14T06:42:10;1.77;;;0.80;;
61915;SDS011;47868;51.326;6.550;2023-03-14T06:44:36;0.80;;;0.80;;
61915;SDS011;47868;51.326;6.550;2023-03-14T06:47:02;1.08;;;0.90;;
61915;SDS011;47868;51.326;6.550;2023-03-14T06:49:28;0.60;;;0.60;;
61915;SDS011;47868;51.326;6.550;2023-03-14T06:51:54;1.00;;;0.80;;
61915;SDS011;47868;51.326;6.550;2023-03-14T06:54:20;3.13;;;0.80;;
61915;SDS011;47868;51.326;6.550;2023-03-14T06:56:46;0.93;;;0.70;;
61915;SDS011;47868;51.326;6.550;2023-03-14T06:59:12;2.13;;;0.82;;
61915;SDS011;47868;51.326;6.550;2023-03-14T07:01:38;1.50;;;0.70;;
61915;SDS011;47868;51.326;6.550;2023-03-14T07:04:05;1.05;;;0.90;;
61915;SDS011;47868;51.326;6.550;2023-03-14T07:06:31;1.85;;;1.02;;
61915;SDS011;47868;51.326;6.550;2023-03-14T07:08:57;0.82;;;0.82;;
61915;SDS011;47868;51.326;6.550;2023-03-14T07:11:23;1.60;;;0.90;;
61915;SDS011;47868;51.326;6.550;2023-03-14T07:13:49;2.58;;;1.00;;
61915;SDS011;47868;51.326;6.550;2023-03-14T07:16:15;1.15;;;0.90;;
61915;SDS011;47868;51.326;6.550;2023-03-14T07:18:41;1.02;;;0.98;;
61915;SDS011;47868;51.326;6.550;2023-03-14T07:21:07;0.95;;;0.95;;
61915;SDS011;47868;51.326;6.550;2023-03-14T07:23:37;1.50;;;0.93;;
61915;SDS011;47868;51.326;6.550;2023-03-14T07:26:03;1.27;;;1.17;;
61915;SDS011;47868;51.326;6.550;2023-03-14T07:28:29;1.17;;;1.08;;
61915;SDS011;47868;51.326;6.550;2023-03-14T07:30:56;0.82;;;0.82;;
61915;SDS011;47868;51.326;6.550;2023-03-14T07:33:22;1.67;;;0.95;;
61915;SDS011;47868;51.326;6.550;2023-03-14T07:35:48;1.40;;;1.30;;
61915;SDS011;47868;51.326;6.550;2023-03-14T07:38:14;1.50;;;1.40;;
61915;SDS011;47868;51.326;6.550;2023-03-14T07:40:40;1.15;;;1.08;;
61915;SDS011;47868;51.326;6.550;2023-03-14T07:43:06;1.40;;;1.30;;
61915;SDS011;47868;51.326;6.550;2023-03-14T07:45:32;1.50;;;1.40;;
61915;SDS011;47868;51.326;6.550;2023-03-14T07:47:58;1.63;;;1.52;;
61915;SDS011;47868;51.326;6.550;2023-03-14T07:50:25;4.32;;;1.70;;
61915;SDS011;47868;51.326;6.550;2023-03-14T07:52:51;1.80;;;1.70;;
61915;SDS011;47868;51.326;6.550;2023-03-14T07:55:17;2.10;;;1.67;;
61915;SDS011;47868;51.326;6.550;2023-03-14T07:57:43;1.70;;;1.60;;
61915;SDS011;47868;51.326;6.550;2023-03-14T08:00:09;1.75;;;1.65;;
61915;SDS011;47868;51.326;6.550;2023-03-14T08:02:36;2.25;;;1.92;;
61915;SDS011;47868;51.326;6.550;2023-03-14T08:05:02;2.70;;;1.85;;
61915;SDS011;47868;51.326;6.550;2023-03-14T08:07:28;2.75;;;2.00;;
61915;SDS011;47868;51.326;6.550;2023-03-14T08:09:55;1.80;;;1.70;;
61915;SDS011;47868;51.326;6.550;2023-03-14T08:12:21;2.63;;;2.00;;
61915;SDS011;47868;51.326;6.550;2023-03-14T08:14:47;2.42;;;1.95;;
61915;SDS011;47868;51.326;6.550;2023-03-14T08:17:13;3.05;;;2.03;;
61915;SDS011;47868;51.326;6.550;2023-03-14T08:19:40;2.65;;;2.17;;
61915;SDS011;47868;51.326;6.550;2023-03-14T08:22:06;2.60;;;2.40;;
61915;SDS011;47868;51.326;6.550;2023-03-14T08:24:32;1.90;;;1.80;;
61915;SDS011;47868;51.326;6.550;2023-03-14T08:26:58;2.80;;;2.15;;
61915;SDS011;47868;51.326;6.550;2023-03-14T08:29:24;3.30;;;2.40;;
61915;SDS011;47868;51.326;6.550;2023-03-14T08:31:51;3.25;;;2.30;;
61915;SDS011;47868;51.326;6.550;2023-03-14T08:34:17;3.25;;;2.50;;
61915;SDS011;47868;51.326;6.550;2023-03-14T08:36:43;2.47;;;2.25;;
61915;SDS011;47868;51.326;6.550;2023-03-14T08:39:08;2.55;;;2.35;;
61915;SDS011;47868;51.326;6.550;2023-03-14T08:41:35;3.88;;;2.30;;
61915;SDS011;47868;51.326;6.550;2023-03-14T08:44:09;3.00;;;2.60;;
61915;SDS011;47868;51.326;6.550;2023-03-14T08:46:36;3.42;;;2.20;;
61915;SDS011;47868;51.326;6.550;2023-03-14T08:49:02;4.40;;;2.35;;
61915;SDS011;47868;51.326;6.550;2023-03-14T08:51:28;3.15;;;2.60;;
61915;SDS011;47868;51.326;6.550;2023-03-14T08:53:54;2.80;;;1.67;;
61915;SDS011;47868;51.326;6.550;2023-03-14T08:56:20;3.40;;;2.17;;
61915;SDS011;47868;51.326;6.550;2023-03-14T08:58:46;2.47;;;1.80;;
61915;SDS011;47868;51.326;6.550;2023-03-14T09:01:12;2.38;;;1.75;;
61915;SDS011;47868;51.326;6.550;2023-03-14T09:03:38;2.97;;;1.20;;
61915;SDS011;47868;51.326;6.550;2023-03-14T09:06:06;0.70;;;0.70;;
61915;SDS011;47868;51.326;6.550;2023-03-14T09:08:32;1.15;;;0.75;;
61915;SDS011;47868;51.326;6.550;2023-03-14T09:10:58;1.90;;;0.75;;
61915;SDS011;47868;51.326;6.550;2023-03-14T09:13:24;0.85;;;0.80;;
61915;SDS011;47868;51.326;6.550;2023-03-14T09:15:51;2.17;;;0.90;;
61915;SDS011;47868;51.326;6.550;2023-03-14T09:18:17;0.80;;;0.80;;
61915;SDS011;47868;51.326;6.550;2023-03-14T09:20:43;2.22;;;1.15;;
61915;SDS011;47868;51.326;6.550;2023-03-14T09:23:09;0.77;;;0.77;;
61915;SDS011;47868;51.326;6.550;2023-03-14T09:25:35;1.00;;;1.00;;
61915;SDS011;47868;51.326;6.550;2023-03-14T09:28:01;1.05;;;1.00;;
61915;SDS011;47868;51.326;6.550;2023-03-14T09:30:27;1.30;;;1.20;;
61915;SDS011;47868;51.326;6.550;2023-03-14T09:32:53;2.17;;;1.40;;
61915;SDS011;47868;51.326;6.550;2023-03-14T09:35:19;1.30;;;1.30;;
61915;SDS011;47868;51.326;6.550;2023-03-14T09:37:45;1.48;;;1.33;;
61915;SDS011;47868;51.326;6.550;2023-03-14T09:40:12;1.55;;;1.45;;
61915;SDS011;47868;51.326;6.550;2023-03-14T09:42:39;1.60;;;1.50;;
61915;SDS011;47868;51.326;6.550;2023-03-14T09:45:07;1.55;;;1.45;;
61915;SDS011;47868;51.326;6.550;2023-03-14T09:47:36;1.60;;;1.50;;
61915;SDS011;47868;51.326;6.550;2023-03-14T09:50:02;2.33;;;1.77;;
61915;SDS011;47868;51.326;6.550;2023-03-14T09:55:00;1.40;;;1.30;;
61915;SDS011;47868;51.326;6.550;2023-03-14T09:57:27;4.18;;;1.60;;
61915;SDS011;47868;51.326;6.550;2023-03-14T09:59:54;2.67;;;1.70;;
61915;SDS011;47868;51.326;6.550;2023-03-14T10:02:23;3.10;;;1.83;;
61915;SDS011;47868;51.326;6.550;2023-03-14T10:04:50;2.45;;;1.70;;
61915;SDS011;47868;51.326;6.550;2023-03-14T10:07:17;1.95;;;1.80;;
61915;SDS011;47868;51.326;6.550;2023-03-14T10:09:48;4.72;;;2.20;;
61915;SDS011;47868;51.326;6.550;2023-03-14T10:12:15;5.65;;;2.13;;
61915;SDS011;47868;51.326;6.550;2023-03-14T10:14:48;5.00;;;1.63;;
61915;SDS011;47868;51.326;6.550;2023-03-14T10:17:15;1.55;;;1.42;;
61915;SDS011;47868;51.326;6.550;2023-03-14T10:19:58;1.73;;;1.63;;
61915;SDS011;47868;51.326;6.550;2023-03-14T10:22:25;1.83;;;1.60;;
61915;SDS011;47868;51.326;6.550;2023-03-14T10:24:54;2.35;;;1.60;;
61915;SDS011;47868;51.326;6.550;2023-03-14T10:27:22;1.60;;;1.50;;
61915;SDS011;47868;51.326;6.550;2023-03-14T10:29:57;1.80;;;1.70;;
61915;SDS011;47868;51.326;6.550;2023-03-14T10:32:28;2.80;;;1.85;;
61915;SDS011;47868;51.326;6.550;2023-03-14T10:37:32;3.53;;;1.70;;
61915;SDS011;47868;51.326;6.550;2023-03-14T10:39:59;1.58;;;1.48;;
61915;SDS011;47868;51.326;6.550;2023-03-14T10:42:31;2.17;;;1.30;;
61915;SDS011;47868;51.326;6.550;2023-03-14T10:45:04;5.82;;;2.08;;
61915;SDS011;47868;51.326;6.550;2023-03-14T10:47:32;7.78;;;1.70;;
61915;SDS011;47868;51.326;6.550;2023-03-14T10:50:18;4.10;;;1.70;;
61915;SDS011;47868;51.326;6.550;2023-03-14T10:52:47;5.25;;;1.83;;
61915;SDS011;47868;51.326;6.550;2023-03-14T10:55:14;5.53;;;1.88;;
61915;SDS011;47868;51.326;6.550;2023-03-14T10:57:41;3.13;;;1.80;;
61915;SDS011;47868;51.326;6.550;2023-03-14T11:00:17;2.97;;;1.30;;
61915;SDS011;47868;51.326;6.550;2023-03-14T11:02:47;4.75;;;1.63;;
61915;SDS011;47868;51.326;6.550;2023-03-14T11:05:24;2.03;;;1.30;;
61915;SDS011;47868;51.326;6.550;2023-03-14T11:07:52;4.72;;;1.52;;
61915;SDS011;47868;51.326;6.550;2023-03-14T11:10:24;2.40;;;1.13;;
61915;SDS011;47868;51.326;6.550;2023-03-14T11:13:05;3.30;;;1.30;;
61915;SDS011;47868;51.326;6.550;2023-03-14T11:18:10;4.05;;;1.90;;
61915;SDS011;47868;51.326;6.550;2023-03-14T11:23:08;3.00;;;1.52;;
61915;SDS011;47868;51.326;6.550;2023-03-14T11:25:46;2.30;;;1.75;;
61915;SDS011;47868;51.326;6.550;2023-03-14T11:30:52;3.50;;;1.40;;
61915;SDS011;47868;51.326;6.550;2023-03-14T11:33:25;2.80;;;1.90;;
61915;SDS011;47868;51.326;6.550;2023-03-14T11:35:55;4.00;;;2.10;;
61915;SDS011;47868;51.326;6.550;2023-03-14T11:40:50;3.80;;;2.25;;
61915;SDS011;47868;51.326;6.550;2023-03-14T11:43:20;4.47;;;2.38;;
61915;SDS011;47868;51.326;6.550;2023-03-14T11:45:51;4.63;;;3.08;;
61915;SDS011;47868;51.326;6.550;2023-03-14T11:48:24;7.47;;;3.22;;
61915;SDS011;47868;51.326;6.550;2023-03-14T11:50:52;4.68;;;3.25;;
61915;SDS011;47868;51.326;6.550;2023-03-14T11:53:41;4.05;;;1.52;;
61915;SDS011;47868;51.326;6.550;2023-03-14T11:56:08;2.47;;;1.38;;
61915;SDS011;47868;51.326;6.550;2023-03-14T11:58:36;4.35;;;1.75;;
61915;SDS011;47868;51.326;6.550;2023-03-14T12:01:07;4.97;;;1.60;;
61915;SDS011;47868;51.326;6.550;2023-03-14T12:08:53;5.05;;;2.00;;
61915;SDS011;47868;51.326;6.550;2023-03-14T12:13:52;3.80;;;2.08;;
61915;SDS011;47868;51.326;6.550;2023-03-14T12:18:50;5.38;;;2.00;;
61915;SDS011;47868;51.326;6.550;2023-03-14T12:21:17;4.70;;;1.48;;
61915;SDS011;47868;51.326;6.550;2023-03-14T12:28:39;3.83;;;1.60;;
61915;SDS011;47868;51.326;6.550;2023-03-14T12:34:00;6.97;;;1.90;;
61915;SDS011;47868;51.326;6.550;2023-03-14T12:41:51;9.50;;;2.25;;
61915;SDS011;47868;51.326;6.550;2023-03-14T12:44:37;10.60;;;2.55;;
61915;SDS011;47868;51.326;6.550;2023-03-14T12:49:44;13.15;;;3.45;;
61915;SDS011;47868;51.326;6.550;2023-03-14T12:52:13;8.88;;;2.78;;
61915;SDS011;47868;51.326;6.550;2023-03-14T12:54:47;10.68;;;3.00;;
61915;SDS011;47868;51.326;6.550;2023-03-14T13:02:20;15.57;;;3.75;;
61915;SDS011;47868;51.326;6.550;2023-03-14T13:04:49;15.48;;;3.83;;
61915;SDS011;47868;51.326;6.550;2023-03-14T13:07:31;18.58;;;3.80;;
61915;SDS011;47868;51.326;6.550;2023-03-14T13:12:28;11.93;;;3.97;;
61915;SDS011;47868;51.326;6.550;2023-03-14T13:14:57;12.43;;;3.47;;
61915;SDS011;47868;51.326;6.550;2023-03-14T13:17:25;21.05;;;8.00;;
61915;SDS011;47868;51.326;6.550;2023-03-14T13:19:52;15.48;;;4.72;;
61915;SDS011;47868;51.326;6.550;2023-03-14T13:22:22;17.27;;;3.80;;
61915;SDS011;47868;51.326;6.550;2023-03-14T13:24:50;16.35;;;3.97;;
61915;SDS011;47868;51.326;6.550;2023-03-14T13:27:20;15.25;;;3.70;;
61915;SDS011;47868;51.326;6.550;2023-03-14T13:29:48;12.50;;;3.33;;
61915;SDS011;47868;51.326;6.550;2023-03-14T13:32:22;16.85;;;3.72;;
61915;SDS011;47868;51.326;6.550;2023-03-14T13:34:51;17.65;;;4.32;;
61915;SDS011;47868;51.326;6.550;2023-03-14T13:37:21;23.52;;;4.72;;
61915;SDS011;47868;51.326;6.550;2023-03-14T13:39:51;20.77;;;5.53;;
61915;SDS011;47868;51.326;6.550;2023-03-14T13:42:18;17.92;;;3.95;;
61915;SDS011;47868;51.326;6.550;2023-03-14T13:44:44;16.25;;;3.97;;
61915;SDS011;47868;51.326;6.550;2023-03-14T13:47:15;13.07;;;3.53;;
61915;SDS011;47868;51.326;6.550;2023-03-14T13:49:42;19.45;;;4.22;;
61915;SDS011;47868;51.326;6.550;2023-03-14T13:52:27;14.48;;;3.60;;
61915;SDS011;47868;51.326;6.550;2023-03-14T13:54:54;15.00;;;3.17;;
61915;SDS011;47868;51.326;6.550;2023-03-14T13:57:20;12.98;;;4.00;;
61915;SDS011;47868;51.326;6.550;2023-03-14T13:59:57;10.65;;;3.33;;
61915;SDS011;47868;51.326;6.550;2023-03-14T14:02:24;10.70;;;3.58;;
61915;SDS011;47868;51.326;6.550;2023-03-14T14:04:51;14.15;;;3.90;;
61915;SDS011;47868;51.326;6.550;2023-03-14T14:07:17;11.05;;;3.38;;
61915;SDS011;47868;51.326;6.550;2023-03-14T14:09:44;11.15;;;3.47;;
61915;SDS011;47868;51.326;6.550;2023-03-14T14:15:01;10.75;;;2.83;;
61915;SDS011;47868;51.326;6.550;2023-03-14T14:19:58;11.68;;;3.67;;
61915;SDS011;47868;51.326;6.550;2023-03-14T14:22:25;17.33;;;5.55;;
61915;SDS011;47868;51.326;6.550;2023-03-14T14:24:51;12.10;;;3.75;;
61915;SDS011;47868;51.326;6.550;2023-03-14T14:29:55;13.90;;;3.22;;
61915;SDS011;47868;51.326;6.550;2023-03-14T14:32:22;10.93;;;3.22;;
61915;SDS011;47868;51.326;6.550;2023-03-14T14:37:21;10.32;;;3.17;;
61915;SDS011;47868;51.326;6.550;2023-03-14T14:39:48;10.70;;;2.70;;
61915;SDS011;47868;51.326;6.550;2023-03-14T14:42:15;9.32;;;2.65;;
61915;SDS011;47868;51.326;6.550;2023-03-14T14:44:47;6.45;;;2.88;;
61915;SDS011;47868;51.326;6.550;2023-03-14T14:47:15;7.35;;;2.78;;
61915;SDS011;47868;51.326;6.550;2023-03-14T14:49:43;8.18;;;2.50;;
61915;SDS011;47868;51.326;6.550;2023-03-14T14:52:10;7.05;;;2.40;;
61915;SDS011;47868;51.326;6.550;2023-03-14T14:54:46;5.72;;;2.63;;
61915;SDS011;47868;51.326;6.550;2023-03-14T14:57:17;7.63;;;2.35;;
61915;SDS011;47868;51.326;6.550;2023-03-14T14:59:43;7.38;;;2.42;;
61915;SDS011;47868;51.326;6.550;2023-03-14T15:02:16;9.80;;;2.50;;
61915;SDS011;47868;51.326;6.550;2023-03-14T15:04:50;7.00;;;2.13;;
61915;SDS011;47868;51.326;6.550;2023-03-14T15:07:16;7.05;;;2.28;;
61915;SDS011;47868;51.326;6.550;2023-03-14T15:09:42;6.60;;;2.67;;
61915;SDS011;47868;51.326;6.550;2023-03-14T15:12:08;11.63;;;2.58;;
61915;SDS011;47868;51.326;6.550;2023-03-14T15:14:34;11.32;;;2.50;;
61915;SDS011;47868;51.326;6.550;2023-03-14T15:17:00;6.60;;;2.40;;
61915;SDS011;47868;51.326;6.550;2023-03-14T15:19:26;5.35;;;2.03;;
61915;SDS011;47868;51.326;6.550;2023-03-14T15:21:54;10.05;;;2.83;;
61915;SDS011;47868;51.326;6.550;2023-03-14T15:24:20;10.13;;;3.40;;
61915;SDS011;47868;51.326;6.550;2023-03-14T15:26:46;12.63;;;4.60;;
61915;SDS011;47868;51.326;6.550;2023-03-14T15:29:12;9.93;;;3.65;;
61915;SDS011;47868;51.326;6.550;2023-03-14T15:31:40;12.32;;;3.42;;
61915;SDS011;47868;51.326;6.550;2023-03-14T15:34:08;13.27;;;4.45;;
61915;SDS011;47868;51.326;6.550;2023-03-14T15:36:34;12.25;;;2.22;;
61915;SDS011;47868;51.326;6.550;2023-03-14T15:39:01;9.05;;;2.47;;
61915;SDS011;47868;51.326;6.550;2023-03-14T15:41:27;12.63;;;2.60;;
61915;SDS011;47868;51.326;6.550;2023-03-14T15:43:54;10.07;;;2.63;;
61915;SDS011;47868;51.326;6.550;2023-03-14T15:46:20;9.05;;;2.75;;
61915;SDS011;47868;51.326;6.550;2023-03-14T15:48:47;7.55;;;2.90;;
61915;SDS011;47868;51.326;6.550;2023-03-14T15:51:14;11.15;;;2.67;;
61915;SDS011;47868;51.326;6.550;2023-03-14T15:53:40;8.65;;;2.63;;